createdAt,value
2023-01-20T00:00:01.397Z,99600.72
2023-01-20T00:01:08.291Z,99589.22
2023-01-20T00:01:55.252Z,99595.97
2023-01-20T00:02:49.267Z,99578.91
2023-01-20T00:03:43.269Z,99571.28
2023-01-20T00:04:37.237Z,99596.03
2023-01-20T00:05:31.246Z,99576.78
2023-01-20T00:06:26.251Z,99578.38
2023-01-20T00:07:13.264Z,99591.25
2023-01-20T00:07:47.306Z,99579.25
2023-01-20T00:08:35.237Z,99579.63
2023-01-20T00:09:11.305Z,99577.28
2023-01-20T00:09:58.250Z,99577.19
2023-01-20T00:10:32.267Z,99599.88
2023-01-20T00:11:20.222Z,99596.25
2023-01-20T00:11:54.293Z,99583.91
2023-01-20T00:12:38.239Z,99596.00
2023-01-20T00:13:18.309Z,99585.69
2023-01-20T00:14:04.230Z,99596.53
2023-01-20T00:14:44.291Z,99575.16
2023-01-20T00:15:24.238Z,99570.47
2023-01-20T00:16:04.389Z,99576.84
2023-01-20T00:16:44.223Z,99599.78
2023-01-20T00:17:24.285Z,99589.50
2023-01-20T00:18:05.255Z,99588.38
2023-01-20T00:18:46.257Z,99578.00
2023-01-20T00:19:27.234Z,99600.63
2023-01-20T00:20:07.465Z,99595.22
2023-01-20T00:20:47.247Z,99592.16
2023-01-20T00:21:28.277Z,99576.31
2023-01-20T00:22:08.241Z,99577.81
2023-01-20T00:22:48.405Z,99573.25
2023-01-20T00:23:28.223Z,99563.84
2023-01-20T00:24:08.269Z,99595.22
2023-01-20T00:24:48.231Z,99571.72
2023-01-20T00:25:28.278Z,99584.56
2023-01-20T00:26:24.249Z,99592.78
2023-01-20T00:27:04.292Z,99602.78
2023-01-20T00:27:44.219Z,99564.50
2023-01-20T00:28:24.345Z,99595.91
2023-01-20T00:29:05.257Z,99565.16
2023-01-20T00:29:46.631Z,99602.19
2023-01-20T00:30:26.204Z,99578.00
2023-01-20T00:31:16.305Z,99596.00
2023-01-20T00:31:57.215Z,99591.31
2023-01-20T00:32:37.311Z,99554.03
2023-01-20T00:33:17.227Z,99573.75
2023-01-20T00:33:59.316Z,99582.00
2023-01-20T00:34:39.247Z,99604.47
2023-01-20T00:35:19.295Z,99583.63
2023-01-20T00:35:59.209Z,99608.09
2023-01-20T00:36:39.311Z,99589.16
2023-01-20T00:37:19.215Z,99611.50
2023-01-20T00:37:59.259Z,99608.28
2023-01-20T00:38:39.190Z,99587.34
2023-01-20T00:39:20.272Z,99603.78
2023-01-20T00:40:00.259Z,99604.47
2023-01-20T00:40:41.245Z,99602.00
2023-01-20T00:41:22.206Z,99591.41
2023-01-20T00:42:02.270Z,99604.25
2023-01-20T00:42:42.181Z,99582.84
2023-01-20T00:43:22.239Z,99586.25
2023-01-20T00:44:02.224Z,99580.66
2023-01-20T00:44:42.235Z,99611.66
2023-01-20T00:45:23.221Z,99591.31
2023-01-20T00:46:03.274Z,99615.19
2023-01-20T00:46:44.283Z,99591.69
2023-01-20T00:47:24.249Z,99605.00
2023-01-20T00:48:04.192Z,99616.06
2023-01-20T00:48:45.254Z,99601.97
2023-01-20T00:49:26.195Z,99593.81
2023-01-20T00:50:06.264Z,99622.16
2023-01-20T00:50:46.201Z,99598.53
2023-01-20T00:51:27.283Z,99619.69
2023-01-20T00:52:07.198Z,99610.75
2023-01-20T00:52:47.257Z,99625.00
2023-01-20T00:53:28.200Z,99590.06
2023-01-20T00:54:09.271Z,99611.91
2023-01-20T00:54:49.197Z,99596.66
2023-01-20T00:55:29.261Z,99587.31
2023-01-20T00:56:10.200Z,99607.41
2023-01-20T00:56:50.292Z,99618.38
2023-01-20T00:57:30.185Z,99599.16
2023-01-20T00:58:10.222Z,99620.09
2023-01-20T00:58:51.222Z,99612.19
2023-01-20T00:59:31.258Z,99620.25
2023-01-20T01:00:12.229Z,99611.50
2023-01-20T01:00:58.772Z,99603.63
2023-01-20T01:01:39.333Z,99602.19
2023-01-20T01:02:20.257Z,99608.56
2023-01-20T01:03:00.182Z,99598.38
2023-01-20T01:03:40.218Z,99582.00
2023-01-20T01:04:20.192Z,99588.66
2023-01-20T01:05:00.259Z,99596.75
2023-01-20T01:05:40.185Z,99619.31
2023-01-20T01:06:25.594Z,99615.91
2023-01-20T01:07:05.209Z,99600.47
2023-01-20T01:07:45.227Z,99602.66
2023-01-20T01:08:25.170Z,99618.66
2023-01-20T01:09:05.407Z,99618.94
2023-01-20T01:09:45.162Z,99611.91
2023-01-20T01:10:25.255Z,99601.97
2023-01-20T01:11:05.178Z,99611.03
2023-01-20T01:11:45.225Z,99613.44
2023-01-20T01:12:25.321Z,99626.44
2023-01-20T01:13:09.257Z,99618.53
2023-01-20T01:13:49.181Z,99618.75
2023-01-20T01:14:29.206Z,99604.00
2023-01-20T01:15:10.175Z,99616.84
2023-01-20T01:15:56.301Z,99618.25
2023-01-20T01:16:36.210Z,99623.88
2023-01-20T01:17:16.205Z,99621.09
2023-01-20T01:17:56.161Z,99593.81
2023-01-20T01:18:36.253Z,99596.69
2023-01-20T01:19:17.141Z,99617.41
2023-01-20T01:20:00.243Z,99634.66
2023-01-20T01:20:40.157Z,99627.41
2023-01-20T01:21:23.221Z,99635.97
2023-01-20T01:22:03.157Z,99639.94
2023-01-20T01:22:43.201Z,99621.56
2023-01-20T01:23:23.189Z,99625.88
2023-01-20T01:24:03.206Z,99640.63
2023-01-20T01:24:43.154Z,99630.34
2023-01-20T01:25:23.230Z,99611.28
2023-01-20T01:26:03.151Z,99606.75
2023-01-20T01:26:43.210Z,99638.31
2023-01-20T01:27:23.142Z,99641.75
2023-01-20T01:28:03.240Z,99643.47
2023-01-20T01:28:43.169Z,99607.31
2023-01-20T01:29:23.222Z,99633.59
2023-01-20T01:30:03.151Z,99625.03
2023-01-20T01:30:43.192Z,99619.69
2023-01-20T01:31:25.176Z,99641.19
2023-01-20T01:32:05.203Z,99627.19
2023-01-20T01:32:45.162Z,99625.19
2023-01-20T01:33:25.196Z,99638.44
2023-01-20T01:34:05.191Z,99628.03
2023-01-20T01:34:45.232Z,99629.38
2023-01-20T01:35:25.131Z,99600.34
2023-01-20T01:36:08.487Z,99644.38
2023-01-20T01:36:48.168Z,99650.50
2023-01-20T01:37:28.210Z,99646.09
2023-01-20T01:38:08.193Z,99626.34
2023-01-20T01:38:57.470Z,99633.63
2023-01-20T01:39:40.171Z,99624.97
2023-01-20T01:40:20.206Z,99641.16
2023-01-20T01:41:02.177Z,99642.00
2023-01-20T01:41:56.138Z,99633.72
2023-01-20T01:42:50.123Z,99645.53
2023-01-20T01:43:50.123Z,99629.34
2023-01-20T01:44:46.217Z,99643.94
2023-01-20T01:45:44.174Z,99635.81
2023-01-20T01:46:38.174Z,99630.50
2023-01-20T01:47:32.168Z,99636.22
2023-01-20T01:48:26.125Z,99630.50
2023-01-20T01:49:42.144Z,99650.13
2023-01-20T01:50:30.158Z,99646.59
2023-01-20T01:51:26.227Z,99650.84
2023-01-20T01:52:18.141Z,99625.53
2023-01-20T01:53:01.236Z,99639.44
2023-01-20T01:53:49.118Z,99655.00
2023-01-20T01:54:33.205Z,99625.88
2023-01-20T01:55:14.356Z,99649.19
2023-01-20T01:56:01.172Z,99658.16
2023-01-20T01:56:36.166Z,99640.34
2023-01-20T01:57:23.138Z,99654.47
2023-01-20T01:57:58.226Z,99648.81
2023-01-20T01:58:50.164Z,99649.38
2023-01-20T01:59:25.178Z,99648.13
2023-01-20T02:00:13.131Z,99650.34
2023-01-20T02:00:50.180Z,99647.84
2023-01-20T02:01:32.206Z,99652.44
2023-01-20T02:02:13.217Z,99641.19
2023-01-20T02:02:56.108Z,99630.13
2023-01-20T02:03:47.196Z,99628.44
2023-01-20T02:04:31.154Z,99641.66
2023-01-20T02:05:12.230Z,99624.25
2023-01-20T02:05:54.122Z,99632.16
2023-01-20T02:06:49.163Z,99646.91
2023-01-20T02:07:45.164Z,99639.31
2023-01-20T02:08:40.150Z,99641.22
2023-01-20T02:09:34.116Z,99650.16
2023-01-20T02:10:29.136Z,99649.50
2023-01-20T02:11:23.114Z,99634.06
2023-01-20T02:12:14.143Z,99649.69
2023-01-20T02:12:51.132Z,99644.81
2023-01-20T02:13:38.112Z,99634.44
2023-01-20T02:14:13.164Z,99616.34
2023-01-20T02:15:04.124Z,99639.50
2023-01-20T02:15:49.137Z,99632.72
2023-01-20T02:17:36.159Z,99651.94
2023-01-20T02:18:31.308Z,99635.25
2023-01-20T02:19:56.108Z,99643.44
2023-01-20T02:20:34.462Z,99643.75
2023-01-20T02:22:00.132Z,99649.56
2023-01-20T02:23:09.127Z,99648.25
2023-01-20T02:24:21.098Z,99616.81
2023-01-20T02:25:49.102Z,99640.06
2023-01-20T02:27:11.118Z,99645.03
2023-01-20T02:28:57.096Z,99627.59
2023-01-20T02:30:24.127Z,99654.34
2023-01-20T02:31:40.125Z,99654.94
2023-01-20T02:33:17.086Z,99662.72
2023-01-20T02:34:29.102Z,99650.91
2023-01-20T02:35:40.081Z,99675.63
2023-01-20T02:36:59.078Z,99661.09
2023-01-20T02:38:18.081Z,99679.25
2023-01-20T02:39:48.107Z,99654.94
2023-01-20T02:41:26.094Z,99678.44
2023-01-20T02:42:25.063Z,99668.75
2023-01-20T02:43:58.087Z,99677.16
2023-01-20T02:45:13.267Z,99686.13
2023-01-20T02:46:41.084Z,99682.06
2023-01-20T02:48:02.076Z,99683.19
2023-01-20T02:49:26.091Z,99684.06
2023-01-20T02:50:29.122Z,99669.81
2023-01-20T02:51:33.067Z,99680.47
2023-01-20T02:52:35.057Z,99687.44
2023-01-20T02:53:31.053Z,99681.16
2023-01-20T02:54:27.056Z,99673.63
2023-01-20T02:55:26.060Z,99669.00
2023-01-20T02:56:07.131Z,99678.84
2023-01-20T02:56:47.115Z,99692.75
2023-01-20T02:57:43.064Z,99654.75
2023-01-20T02:58:47.161Z,99663.06
2023-01-20T02:59:33.033Z,99677.63
2023-01-20T03:00:30.115Z,99679.44
2023-01-20T03:01:20.191Z,99672.47
2023-01-20T03:02:25.578Z,99678.13
2023-01-20T03:03:06.055Z,99686.44
2023-01-20T03:03:50.116Z,99700.22
2023-01-20T03:04:36.057Z,99698.56
2023-01-20T03:05:26.180Z,99670.75
2023-01-20T03:06:09.260Z,99664.31
2023-01-20T03:06:56.074Z,99684.91
2023-01-20T03:07:32.136Z,99697.00
2023-01-20T03:08:20.033Z,99691.94
2023-01-20T03:08:55.170Z,99681.66
2023-01-20T03:09:48.119Z,99675.19
2023-01-20T03:10:25.115Z,99688.84
2023-01-20T03:11:14.052Z,99699.75
2023-01-20T03:11:52.205Z,99681.09
2023-01-20T03:12:36.250Z,99701.53
2023-01-20T03:13:37.118Z,99683.78
2023-01-20T03:14:20.040Z,99695.72
2023-01-20T03:15:00.165Z,99702.88
2023-01-20T03:16:00.099Z,99677.63
2023-01-20T03:16:40.169Z,99702.28
2023-01-20T03:17:21.033Z,99678.09
2023-01-20T03:18:01.053Z,99693.72
2023-01-20T03:18:40.138Z,99700.22
2023-01-20T03:19:27.173Z,99685.56
2023-01-20T03:20:01.077Z,99702.69
2023-01-20T03:20:48.050Z,99705.28
2023-01-20T03:21:25.087Z,99714.69
2023-01-20T03:22:12.045Z,99708.63
2023-01-20T03:22:46.098Z,99706.13
2023-01-20T03:23:26.056Z,99698.69
2023-01-20T03:24:11.084Z,99710.50
2023-01-20T03:24:53.043Z,99711.06
2023-01-20T03:25:33.088Z,99705.00
2023-01-20T03:26:18.032Z,99706.69
2023-01-20T03:27:13.022Z,99702.06
2023-01-20T03:28:07.026Z,99697.16
2023-01-20T03:28:52.088Z,99680.44
2023-01-20T03:29:33.123Z,99679.66
2023-01-20T03:30:23.104Z,99702.13
2023-01-20T03:31:04.180Z,99692.97
2023-01-20T03:32:04.015Z,99690.13
2023-01-20T03:32:44.173Z,99686.50
2023-01-20T03:33:25.028Z,99706.81
2023-01-20T03:34:17.017Z,99693.00
2023-01-20T03:35:12.070Z,99694.50
2023-01-20T03:36:06.021Z,99680.03
2023-01-20T03:37:00.012Z,99712.72
2023-01-20T03:37:54.008Z,99701.91
2023-01-20T03:38:48.013Z,99693.16
2023-01-20T03:39:36.011Z,99711.44
2023-01-20T03:40:10.062Z,99708.47
2023-01-20T03:41:36.023Z,99724.47
2023-01-20T03:42:25.217Z,99720.94
2023-01-20T03:43:30.007Z,99727.59
2023-01-20T03:44:16.066Z,99725.19
2023-01-20T03:45:30.047Z,99708.56
2023-01-20T03:46:21.075Z,99734.94
2023-01-20T03:47:35.999Z,99724.13
2023-01-20T03:48:35.056Z,99731.81
2023-01-20T03:49:24.007Z,99692.97
2023-01-20T03:51:08.028Z,99730.09
2023-01-20T03:52:22.003Z,99670.56
2023-01-20T03:53:43.982Z,99723.06
2023-01-20T03:54:41.022Z,99705.38
2023-01-20T03:55:47.010Z,99718.97
2023-01-20T03:56:59.011Z,99726.78
2023-01-20T03:57:46.228Z,99732.19
2023-01-20T03:58:35.986Z,99730.84
2023-01-20T03:59:18.051Z,99733.03
2023-01-20T03:59:58.980Z,99715.75
2023-01-20T04:00:46.091Z,99736.72
2023-01-20T04:01:30.083Z,99721.66
2023-01-20T04:02:20.159Z,99739.47
2023-01-20T04:03:18.009Z,99741.19
2023-01-20T04:04:13.029Z,99724.91
2023-01-20T04:05:07.995Z,99750.13
2023-01-20T04:06:01.972Z,99736.97
2023-01-20T04:06:56.995Z,99742.16
2023-01-20T04:07:47.021Z,99720.47
2023-01-20T04:08:23.072Z,99751.44
2023-01-20T04:09:14.990Z,99753.91
2023-01-20T04:09:55.081Z,99745.03
2023-01-20T04:10:45.959Z,99736.44
2023-01-20T04:11:20.070Z,99750.25
2023-01-20T04:12:06.983Z,99735.09
2023-01-20T04:12:41.003Z,99728.38
2023-01-20T04:13:21.994Z,99757.41
2023-01-20T04:14:02.080Z,99757.41
2023-01-20T04:14:43.001Z,99741.78
2023-01-20T04:15:23.018Z,99749.38
2023-01-20T04:16:04.039Z,99739.38
2023-01-20T04:16:44.039Z,99767.06
2023-01-20T04:17:24.970Z,99750.03
2023-01-20T04:18:19.015Z,99744.25
2023-01-20T04:18:59.995Z,99756.66
2023-01-20T04:19:40.004Z,99751.69
2023-01-20T04:20:21.997Z,99762.94
2023-01-20T04:21:10.030Z,99760.19
2023-01-20T04:22:09.970Z,99766.09
2023-01-20T04:23:04.031Z,99753.50
2023-01-20T04:23:53.054Z,99771.19
2023-01-20T04:24:52.046Z,99775.31
2023-01-20T04:25:34.677Z,99768.09
2023-01-20T04:26:21.957Z,99750.84
2023-01-20T04:26:56.039Z,99768.69
2023-01-20T04:27:42.987Z,99754.28
2023-01-20T04:28:17.007Z,99755.56
2023-01-20T04:29:03.972Z,99764.41
2023-01-20T04:29:38.059Z,99774.09
2023-01-20T04:30:21.002Z,99769.97
2023-01-20T04:31:01.078Z,99756.31
2023-01-20T04:31:42.988Z,99769.47
2023-01-20T04:32:22.994Z,99747.81
2023-01-20T04:33:02.963Z,99771.63
2023-01-20T04:33:47.025Z,99744.66
2023-01-20T04:34:27.965Z,99745.59
2023-01-20T04:35:08.138Z,99761.72
2023-01-20T04:35:48.011Z,99776.19
2023-01-20T04:36:28.027Z,99768.97
2023-01-20T04:37:07.950Z,99757.97
2023-01-20T04:37:48.026Z,99768.78
2023-01-20T04:38:28.941Z,99764.75
2023-01-20T04:39:09.139Z,99762.00
2023-01-20T04:39:48.983Z,99752.88
2023-01-20T04:40:29.076Z,99776.34
2023-01-20T04:41:09.003Z,99778.06
2023-01-20T04:41:49.072Z,99775.84
2023-01-20T04:42:29.955Z,99756.94
2023-01-20T04:43:12.068Z,99770.00
2023-01-20T04:43:52.949Z,99784.91
2023-01-20T04:44:33.041Z,99777.38
2023-01-20T04:45:14.165Z,99766.03
2023-01-20T04:45:55.043Z,99751.44
2023-01-20T04:46:37.001Z,99767.56
2023-01-20T04:47:17.006Z,99783.69
2023-01-20T04:47:56.965Z,99762.41
2023-01-20T04:48:37.084Z,99795.38
2023-01-20T04:49:17.958Z,99772.72
2023-01-20T04:49:58.011Z,99788.88
2023-01-20T04:50:38.936Z,99780.59
2023-01-20T04:51:19.976Z,99780.19
2023-01-20T04:51:59.955Z,99774.53
2023-01-20T04:52:39.994Z,99792.47
2023-01-20T04:53:22.952Z,99782.50
2023-01-20T04:54:17.000Z,99777.69
2023-01-20T04:55:10.944Z,99798.56
2023-01-20T04:56:04.951Z,99785.16
2023-01-20T04:56:58.921Z,99806.72
2023-01-20T04:57:38.941Z,99793.66
2023-01-20T04:58:18.954Z,99785.25
2023-01-20T04:58:59.915Z,99787.66
2023-01-20T04:59:40.011Z,99805.09
2023-01-20T05:00:25.926Z,99795.56
2023-01-20T05:01:09.142Z,99792.16
2023-01-20T05:01:49.036Z,99800.38
2023-01-20T05:02:29.028Z,99774.28
2023-01-20T05:03:04.070Z,99788.97
2023-01-20T05:03:51.921Z,99775.91
2023-01-20T05:04:25.982Z,99779.59
2023-01-20T05:05:14.279Z,99794.03
2023-01-20T05:05:47.966Z,99787.16
2023-01-20T05:06:34.948Z,99799.34
2023-01-20T05:07:08.990Z,99804.69
2023-01-20T05:07:48.936Z,99772.72
2023-01-20T05:08:29.003Z,99803.22
2023-01-20T05:09:08.914Z,99803.13
2023-01-20T05:09:48.974Z,99807.59
2023-01-20T05:10:31.910Z,99809.31
2023-01-20T05:11:12.989Z,99805.38
2023-01-20T05:11:52.911Z,99794.72
2023-01-20T05:12:33.052Z,99810.34
2023-01-20T05:13:12.991Z,99782.53
2023-01-20T05:13:52.996Z,99814.03
2023-01-20T05:14:32.931Z,99805.09
2023-01-20T05:15:14.209Z,99802.44
2023-01-20T05:15:53.951Z,99807.41
2023-01-20T05:16:34.907Z,99823.97
2023-01-20T05:17:14.889Z,99795.28
2023-01-20T05:17:54.955Z,99799.66
2023-01-20T05:18:35.929Z,99792.81
2023-01-20T05:19:17.968Z,99798.47
2023-01-20T05:19:57.912Z,99786.81
2023-01-20T05:20:37.979Z,99810.66
2023-01-20T05:21:17.959Z,99796.41
2023-01-20T05:21:57.954Z,99817.72
2023-01-20T05:22:39.910Z,99815.50
2023-01-20T05:23:19.972Z,99822.88
2023-01-20T05:24:01.913Z,99824.59
2023-01-20T05:24:41.968Z,99822.88
2023-01-20T05:25:21.930Z,99830.63
2023-01-20T05:26:01.968Z,99834.63
2023-01-20T05:26:41.940Z,99774.00
2023-01-20T05:27:21.968Z,99798.22
2023-01-20T05:28:01.920Z,99806.03
2023-01-20T05:28:41.958Z,99837.56
2023-01-20T05:29:21.910Z,99834.53
2023-01-20T05:30:02.032Z,99816.50
2023-01-20T05:30:42.050Z,99846.59
2023-01-20T05:31:24.067Z,99838.50
2023-01-20T05:32:03.901Z,99837.47
2023-01-20T05:33:02.917Z,99825.09
2023-01-20T05:33:56.895Z,99833.88
2023-01-20T05:34:43.908Z,99815.00
2023-01-20T05:35:17.998Z,99836.44
2023-01-20T05:36:04.927Z,99844.69
2023-01-20T05:36:38.935Z,99841.16
2023-01-20T05:37:25.888Z,99821.41
2023-01-20T05:38:00.929Z,99842.88
2023-01-20T05:38:47.907Z,99828.88
2023-01-20T05:39:22.063Z,99847.09
2023-01-20T05:40:08.931Z,99821.31
2023-01-20T05:40:42.945Z,99822.88
2023-01-20T05:41:29.872Z,99849.66
2023-01-20T05:42:03.930Z,99858.16
2023-01-20T05:42:50.873Z,99849.41
2023-01-20T05:43:31.942Z,99827.75
2023-01-20T05:44:12.897Z,99827.66
2023-01-20T05:44:52.968Z,99863.03
2023-01-20T05:45:32.929Z,99858.75
2023-01-20T05:46:14.043Z,99862.28
2023-01-20T05:46:53.872Z,99839.25
2023-01-20T05:47:34.934Z,99862.47
2023-01-20T05:48:14.871Z,99869.25
2023-01-20T05:48:55.000Z,99873.88
2023-01-20T05:49:34.910Z,99857.31
2023-01-20T05:50:15.908Z,99847.00
2023-01-20T05:50:55.905Z,99864.00
2023-01-20T05:51:36.946Z,99866.84
2023-01-20T05:52:16.923Z,99841.56
2023-01-20T05:52:56.941Z,99865.63
2023-01-20T05:53:36.865Z,99867.44
2023-01-20T05:54:16.932Z,99862.19
2023-01-20T05:54:56.883Z,99862.19
2023-01-20T05:55:37.948Z,99865.44
2023-01-20T05:56:21.873Z,99842.94
2023-01-20T05:57:04.130Z,99854.13
2023-01-20T05:57:43.836Z,99852.47
2023-01-20T05:58:23.901Z,99850.75
2023-01-20T05:59:03.882Z,99873.19
2023-01-20T05:59:45.380Z,99862.50
2023-01-20T06:00:26.879Z,99847.94
2023-01-20T06:01:19.986Z,99866.03
2023-01-20T06:01:59.883Z,99868.59
2023-01-20T06:02:40.002Z,99858.75
2023-01-20T06:03:19.858Z,99866.06
2023-01-20T06:04:01.032Z,99849.81
2023-01-20T06:04:40.920Z,99849.81
2023-01-20T06:05:20.983Z,99871.56
2023-01-20T06:06:07.919Z,99869.00
2023-01-20T06:06:47.930Z,99875.84
2023-01-20T06:07:27.872Z,99865.66
2023-01-20T06:08:08.993Z,99868.81
2023-01-20T06:08:49.853Z,99842.47
2023-01-20T06:09:29.927Z,99845.13
2023-01-20T06:10:09.863Z,99882.50
2023-01-20T06:10:50.645Z,99872.03
2023-01-20T06:11:30.917Z,99871.84
2023-01-20T06:12:12.048Z,99868.41
2023-01-20T06:12:59.859Z,99855.25
2023-01-20T06:13:39.911Z,99855.50
2023-01-20T06:14:19.872Z,99851.22
2023-01-20T06:14:59.876Z,99845.81
2023-01-20T06:15:39.836Z,99875.25
2023-01-20T06:16:20.964Z,99889.69
2023-01-20T06:17:00.845Z,99859.47
2023-01-20T06:17:42.084Z,99865.28
2023-01-20T06:18:21.892Z,99857.41
2023-01-20T06:19:02.983Z,99858.06
2023-01-20T06:19:42.864Z,99863.13
2023-01-20T06:20:23.918Z,99881.88
2023-01-20T06:21:07.852Z,99885.56
2023-01-20T06:21:47.894Z,99870.53
2023-01-20T06:22:27.883Z,99875.69
2023-01-20T06:23:07.898Z,99876.81
2023-01-20T06:23:47.858Z,99870.81
2023-01-20T06:24:28.934Z,99886.72
2023-01-20T06:25:08.851Z,99888.16
2023-01-20T06:25:48.909Z,99888.69
2023-01-20T06:26:28.851Z,99862.31
2023-01-20T06:27:08.896Z,99873.03
2023-01-20T06:27:48.908Z,99868.75
2023-01-20T06:28:30.029Z,99902.28
2023-01-20T06:29:09.844Z,99893.44
2023-01-20T06:29:50.913Z,99892.28
2023-01-20T06:30:30.873Z,99872.72
2023-01-20T06:31:20.957Z,99857.81
2023-01-20T06:32:02.056Z,99883.69
2023-01-20T06:32:42.881Z,99852.06
2023-01-20T06:33:22.834Z,99863.41
2023-01-20T06:34:02.874Z,99883.69
2023-01-20T06:34:42.845Z,99847.78
2023-01-20T06:35:22.900Z,99853.63
2023-01-20T06:36:03.829Z,99876.50
2023-01-20T06:36:44.847Z,99856.38
2023-01-20T06:37:25.839Z,99838.94
2023-01-20T06:38:05.906Z,99834.72
2023-01-20T06:38:45.816Z,99874.19
2023-01-20T06:39:25.899Z,99872.19
2023-01-20T06:40:05.842Z,99865.25
2023-01-20T06:40:46.886Z,99852.44
2023-01-20T06:41:27.814Z,99876.31
2023-01-20T06:42:07.879Z,99858.97
2023-01-20T06:42:47.802Z,99868.31
2023-01-20T06:43:27.894Z,99883.78
2023-01-20T06:44:07.830Z,99875.19
2023-01-20T06:44:48.885Z,99875.97
2023-01-20T06:45:28.860Z,99878.38
2023-01-20T06:46:11.998Z,99872.09
2023-01-20T06:46:52.851Z,99870.97
2023-01-20T06:47:32.874Z,99866.84
2023-01-20T06:48:12.997Z,99874.59
2023-01-20T06:49:00.194Z,99859.13
2023-01-20T06:49:40.806Z,99861.19
2023-01-20T06:50:21.894Z,99850.47
2023-01-20T06:51:13.908Z,99875.03
2023-01-20T06:51:53.935Z,99856.03
2023-01-20T06:52:34.878Z,99881.97
2023-01-20T06:53:14.862Z,99884.63
2023-01-20T06:53:54.822Z,99888.25
2023-01-20T06:54:34.905Z,99863.06
2023-01-20T06:55:14.987Z,99866.53
2023-01-20T06:56:02.925Z,99864.72
2023-01-20T06:56:43.833Z,99860.09
2023-01-20T06:57:23.904Z,99891.41
2023-01-20T06:58:03.818Z,99876.13
2023-01-20T06:58:44.737Z,99880.16
2023-01-20T06:59:24.794Z,99871.13
2023-01-20T07:00:04.928Z,99885.06
2023-01-20T07:00:45.809Z,99867.34
2023-01-20T07:01:32.917Z,99869.25
2023-01-20T07:03:14.823Z,99873.72
2023-01-20T07:03:49.844Z,99874.38
2023-01-20T07:04:23.501Z,99869.34
2023-01-20T07:05:06.806Z,99869.81
2023-01-20T07:05:40.895Z,99860.50
2023-01-20T07:06:18.667Z,99867.41
2023-01-20T07:06:58.843Z,99879.19
2023-01-20T07:07:40.013Z,99874.97
2023-01-20T07:08:13.457Z,99877.56
2023-01-20T07:08:53.909Z,99866.63
2023-01-20T07:09:34.807Z,99859.22
2023-01-20T07:10:15.878Z,99868.91
2023-01-20T07:10:55.789Z,99855.19
2023-01-20T07:11:35.932Z,99882.13
2023-01-20T07:12:15.835Z,99870.97
2023-01-20T07:12:55.811Z,99867.44
2023-01-20T07:13:29.845Z,99877.00
2023-01-20T07:14:16.871Z,99880.50
2023-01-20T07:14:53.850Z,99900.28
2023-01-20T07:15:40.769Z,99881.22
2023-01-20T07:16:15.950Z,99881.28
2023-01-20T07:17:02.779Z,99871.75
2023-01-20T07:17:36.831Z,99886.34
2023-01-20T07:18:17.797Z,99897.72
2023-01-20T07:18:58.850Z,99903.03
2023-01-20T07:19:38.776Z,99908.06
2023-01-20T07:20:20.227Z,99903.72
2023-01-20T07:21:01.775Z,99908.97
2023-01-20T07:21:41.891Z,99903.72
2023-01-20T07:22:22.769Z,99937.59
2023-01-20T07:23:08.851Z,99923.66
2023-01-20T07:23:49.791Z,99943.69
2023-01-20T07:24:29.819Z,99901.13
2023-01-20T07:25:09.782Z,99940.06
2023-01-20T07:25:49.849Z,99918.66
2023-01-20T07:26:32.795Z,99954.22
2023-01-20T07:27:14.950Z,99949.63
2023-01-20T07:27:54.768Z,99922.81
2023-01-20T07:28:35.810Z,99940.31
2023-01-20T07:29:17.846Z,99922.09
2023-01-20T07:29:57.896Z,99943.34
2023-01-20T07:30:38.798Z,99953.03
2023-01-20T07:31:25.892Z,99966.22
2023-01-20T07:32:06.765Z,99953.38
2023-01-20T07:32:46.862Z,99947.72
2023-01-20T07:33:26.743Z,99958.91
2023-01-20T07:34:06.854Z,99947.09
2023-01-20T07:34:50.126Z,99937.59
2023-01-20T07:35:30.867Z,99970.25
2023-01-20T07:36:13.791Z,99975.66
2023-01-20T07:36:53.822Z,99915.22
2023-01-20T07:37:33.765Z,99971.19
2023-01-20T07:38:13.838Z,99969.63
2023-01-20T07:38:56.750Z,99969.50
2023-01-20T07:39:36.812Z,99971.97
2023-01-20T07:40:17.801Z,99971.28
2023-01-20T07:40:58.146Z,99975.44
2023-01-20T07:41:38.744Z,99961.66
2023-01-20T07:42:18.856Z,99965.97
2023-01-20T07:42:59.764Z,99959.31
2023-01-20T07:43:39.835Z,99968.69
2023-01-20T07:44:19.820Z,99971.97
2023-01-20T07:44:59.809Z,99971.91
2023-01-20T07:45:39.795Z,99966.31
2023-01-20T07:46:20.846Z,99983.38
2023-01-20T07:47:01.737Z,99964.34
2023-01-20T07:47:41.797Z,99970.44
2023-01-20T07:48:21.752Z,99980.16
2023-01-20T07:49:02.826Z,99971.31
2023-01-20T07:49:42.753Z,99973.19
2023-01-20T07:50:22.812Z,99967.09
2023-01-20T07:51:08.771Z,99962.66
2023-01-20T07:51:48.869Z,99962.56
2023-01-20T07:52:28.764Z,99965.31
2023-01-20T07:53:09.814Z,99974.59
2023-01-20T07:53:53.723Z,99953.94
2023-01-20T07:54:33.778Z,99979.56
2023-01-20T07:55:14.959Z,99972.25
2023-01-20T07:55:55.792Z,99974.59
2023-01-20T07:56:36.795Z,99967.09
2023-01-20T07:57:16.781Z,99972.00
2023-01-20T07:57:57.740Z,99979.16
2023-01-20T07:58:38.898Z,99975.97
2023-01-20T07:59:19.733Z,99986.38
2023-01-20T07:59:59.800Z,99983.75
2023-01-20T08:00:40.783Z,99972.69
2023-01-20T08:01:25.894Z,99986.38
2023-01-20T08:02:05.773Z,99990.75
2023-01-20T08:02:46.828Z,99970.97
2023-01-20T08:03:27.488Z,99978.00
2023-01-20T08:04:07.800Z,99971.81
2023-01-20T08:04:48.814Z,99999.59
2023-01-20T08:05:28.801Z,99972.91
2023-01-20T08:06:14.755Z,100001.31
2023-01-20T08:06:54.784Z,99998.72
2023-01-20T08:07:34.755Z,99985.81
2023-01-20T08:08:14.778Z,99998.97
2023-01-20T08:08:58.435Z,100002.88
2023-01-20T08:09:40.497Z,99983.84
2023-01-20T08:10:21.724Z,100008.00
2023-01-20T08:11:01.897Z,100003.41
2023-01-20T08:11:41.709Z,99994.63
2023-01-20T08:12:22.435Z,100011.06
2023-01-20T08:13:02.736Z,99995.41
2023-01-20T08:13:42.821Z,100002.88
2023-01-20T08:14:22.727Z,99993.69
2023-01-20T08:15:02.811Z,100009.84
2023-01-20T08:15:42.734Z,100014.00
2023-01-20T08:16:23.948Z,100008.47
2023-01-20T08:17:06.738Z,99973.91
2023-01-20T08:17:46.769Z,99984.31
2023-01-20T08:18:26.737Z,100007.47
2023-01-20T08:19:06.765Z,100012.63
2023-01-20T08:19:46.697Z,99981.31
2023-01-20T08:20:26.885Z,100013.75
2023-01-20T08:21:06.730Z,100003.25
2023-01-20T08:21:46.848Z,99996.63
2023-01-20T08:22:26.709Z,100011.78
2023-01-20T08:23:06.757Z,99977.72
2023-01-20T08:23:46.755Z,100000.88
2023-01-20T08:24:26.827Z,99999.06
2023-01-20T08:25:06.716Z,99982.72
2023-01-20T08:25:46.827Z,99994.06
2023-01-20T08:26:26.719Z,99973.59
2023-01-20T08:27:06.759Z,100003.69
2023-01-20T08:27:46.743Z,99990.09
2023-01-20T08:28:26.936Z,100015.19
2023-01-20T08:29:13.731Z,100010.06
2023-01-20T08:29:54.791Z,100008.50
2023-01-20T08:30:34.768Z,100001.81
2023-01-20T08:31:21.913Z,100023.47
2023-01-20T08:32:01.685Z,100020.81
2023-01-20T08:32:41.815Z,99999.75
2023-01-20T08:33:21.681Z,100014.53
2023-01-20T08:34:02.778Z,100025.88
2023-01-20T08:34:42.748Z,100026.56
2023-01-20T08:35:22.863Z,100038.78
2023-01-20T08:36:05.734Z,100024.84
2023-01-20T08:36:49.965Z,100020.38
2023-01-20T08:37:30.691Z,100035.94
2023-01-20T08:38:10.793Z,100021.09
2023-01-20T08:38:51.689Z,100008.75
2023-01-20T08:39:31.779Z,100042.31
2023-01-20T08:40:15.772Z,100041.53
2023-01-20T08:40:55.757Z,100046.88
2023-01-20T08:41:39.708Z,100045.84